Terminal Aerodrome Forecast
Issued by NWS

Home | Current Version | Previous Version | Graphics & Text | Print | Product List | Glossary On
Versions: 1 2 3 4 5 6 7 8 9 10 11 12 13 14 15 16 17 18
000
FTUS43 KABR 020500
TAFATY
TAF
KATY 020534Z 0206/0306 22006KT P6SM SKC
     FM021500 25013KT P6SM SKC
     FM030100 19006KT P6SM SKC=

USA.gov is the U.S. government's official web portal to all federal, state and local government web resources and services.